createdAt,value
2019-01-08T00:01:06.699Z,27.20
2019-01-08T00:03:35.969Z,27.90
2019-01-08T00:06:05.753Z,29.02
2019-01-08T00:08:35.001Z,26.27
2019-01-08T00:11:04.260Z,21.73
2019-01-08T00:13:33.419Z,24.20
2019-01-08T00:16:02.605Z,23.05
2019-01-08T00:18:31.851Z,30.48
2019-01-08T00:21:02.362Z,29.63
2019-01-08T00:23:31.693Z,25.15
2019-01-08T00:26:00.860Z,23.02
2019-01-08T00:28:30.133Z,23.92
2019-01-08T00:30:59.371Z,27.20
2019-01-08T00:33:28.990Z,27.30
2019-01-08T00:35:58.178Z,17.40
2019-01-08T00:38:27.418Z,17.20
2019-01-08T00:40:56.592Z,22.55
2019-01-08T00:43:25.739Z,18.60
2019-01-08T00:45:54.882Z,16.62
2019-01-08T00:48:24.065Z,23.30
2019-01-08T00:50:53.967Z,22.35
2019-01-08T00:53:23.182Z,21.95
2019-01-08T00:55:52.619Z,17.65
2019-01-08T00:58:21.832Z,24.70
2019-01-08T01:00:51.054Z,29.18
2019-01-08T01:03:20.361Z,22.60
2019-01-08T01:05:49.628Z,20.43
2019-01-08T01:08:18.873Z,27.70
2019-01-08T01:10:48.065Z,26.82
2019-01-08T01:13:17.218Z,20.30
2019-01-08T01:15:46.362Z,19.00
2019-01-08T01:18:15.541Z,27.25
2019-01-08T01:20:44.705Z,21.57
2019-01-08T01:23:14.112Z,22.10
2019-01-08T01:25:43.292Z,23.25
2019-01-08T01:28:12.844Z,18.90
2019-01-08T01:30:41.992Z,20.37
2019-01-08T01:33:11.167Z,17.82
2019-01-08T01:35:40.690Z,28.27
2019-01-08T01:38:10.237Z,18.55
2019-01-08T01:40:39.500Z,20.45
2019-01-08T01:43:08.729Z,21.00
2019-01-08T01:45:37.888Z,25.30
2019-01-08T01:48:07.401Z,17.45
2019-01-08T01:50:36.592Z,24.60
2019-01-08T01:53:05.756Z,17.45
2019-01-08T01:55:35.381Z,19.25
2019-01-08T01:58:04.695Z,28.92
2019-01-08T02:00:34.094Z,28.45
2019-01-08T02:03:03.629Z,22.82
2019-01-08T02:05:32.789Z,20.82
2019-01-08T02:08:02.056Z,23.95
2019-01-08T02:10:31.228Z,17.20
2019-01-08T02:13:00.409Z,24.75
2019-01-08T02:15:29.656Z,19.57
2019-01-08T02:17:58.840Z,23.22
2019-01-08T02:20:27.993Z,19.40
2019-01-08T02:22:57.174Z,23.02
2019-01-08T02:25:26.609Z,26.52
2019-01-08T02:27:55.862Z,19.77
2019-01-08T02:30:25.114Z,18.92
2019-01-08T02:32:54.648Z,16.17
2019-01-08T02:35:23.861Z,18.60
2019-01-08T02:37:53.274Z,14.93
2019-01-08T02:40:22.537Z,17.12
2019-01-08T02:42:52.067Z,24.63
2019-01-08T02:45:21.362Z,23.18
2019-01-08T02:47:50.562Z,22.67
2019-01-08T02:50:19.716Z,18.52
2019-01-08T02:52:48.960Z,20.40
2019-01-08T02:55:18.221Z,31.17
2019-01-08T02:57:47.381Z,21.82
2019-01-08T03:00:16.564Z,20.55
2019-01-08T03:02:46.016Z,18.77
2019-01-08T03:05:15.274Z,25.60
2019-01-08T03:07:44.521Z,18.67
2019-01-08T03:10:13.992Z,19.23
2019-01-08T03:12:43.225Z,21.93
2019-01-08T03:15:12.619Z,21.37
2019-01-08T03:17:42.265Z,21.02
2019-01-08T03:20:11.485Z,20.65
2019-01-08T03:22:40.724Z,22.87
2019-01-08T03:25:09.983Z,20.05
2019-01-08T03:27:39.136Z,24.23
2019-01-08T03:30:08.302Z,18.60
2019-01-08T03:32:37.561Z,19.27
2019-01-08T03:35:06.798Z,18.75
2019-01-08T03:37:36.035Z,23.90
2019-01-08T03:40:06.266Z,17.55
2019-01-08T03:42:35.497Z,27.13
2019-01-08T03:45:04.765Z,19.55
2019-01-08T03:47:34.021Z,19.67
2019-01-08T03:50:03.846Z,19.50
2019-01-08T03:52:33.026Z,16.42
2019-01-08T03:55:03.314Z,18.48
2019-01-08T03:57:32.551Z,14.68
2019-01-08T04:00:01.808Z,18.05
2019-01-08T04:02:31.115Z,17.85
2019-01-08T04:05:00.994Z,26.85
2019-01-08T04:07:30.651Z,19.73
2019-01-08T04:10:00.822Z,21.12
2019-01-08T04:12:30.045Z,19.77
2019-01-08T04:14:59.222Z,19.92
2019-01-08T04:17:28.633Z,17.95
2019-01-08T04:19:57.861Z,27.82
2019-01-08T04:22:27.411Z,22.67
2019-01-08T04:24:56.729Z,20.97
2019-01-08T04:27:26.063Z,21.52
2019-01-08T04:29:55.322Z,21.60
2019-01-08T04:32:24.645Z,25.72
2019-01-08T04:34:53.873Z,27.98
2019-01-08T04:37:23.360Z,25.95
2019-01-08T04:39:52.552Z,23.70
2019-01-08T04:42:21.874Z,22.50
2019-01-08T04:44:51.116Z,31.57
2019-01-08T04:47:20.369Z,29.65
2019-01-08T04:49:49.521Z,26.07
2019-01-08T04:52:18.705Z,25.85
2019-01-08T04:54:47.961Z,22.80
2019-01-08T04:57:17.190Z,30.17
2019-01-08T04:59:46.461Z,20.43
2019-01-08T05:02:15.782Z,29.32
2019-01-08T05:04:45.591Z,21.52
2019-01-08T05:07:14.832Z,35.30
2019-01-08T05:09:44.021Z,26.12
2019-01-08T05:12:13.185Z,25.43
2019-01-08T05:14:42.347Z,29.72
2019-01-08T05:17:12.020Z,23.95
2019-01-08T05:19:41.187Z,32.83
2019-01-08T05:22:10.514Z,33.58
2019-01-08T05:24:39.709Z,26.97
2019-01-08T05:27:08.934Z,22.35
2019-01-08T05:29:38.394Z,33.92
2019-01-08T05:32:07.653Z,31.15
2019-01-08T05:34:36.966Z,28.47
2019-01-08T05:37:06.225Z,33.80
2019-01-08T05:39:35.405Z,29.20
2019-01-08T05:42:04.634Z,33.02
2019-01-08T05:44:33.889Z,33.53
2019-01-08T05:47:03.144Z,31.62
2019-01-08T05:49:32.325Z,24.50
2019-01-08T05:52:01.698Z,29.72
2019-01-08T05:54:31.873Z,33.90
2019-01-08T05:57:01.104Z,35.58
2019-01-08T05:59:30.615Z,31.37
2019-01-08T06:02:00.941Z,36.17
2019-01-08T06:04:30.237Z,32.40
2019-01-08T06:06:59.533Z,39.85
2019-01-08T06:09:29.530Z,31.80
2019-01-08T06:11:59.056Z,37.88
2019-01-08T06:14:28.235Z,36.53
2019-01-08T06:16:57.408Z,38.08
2019-01-08T06:19:26.645Z,37.50
2019-01-08T06:21:56.383Z,33.48
2019-01-08T06:24:25.765Z,31.52
2019-01-08T06:26:55.255Z,39.00
2019-01-08T06:29:24.461Z,33.53
2019-01-08T06:31:54.381Z,34.70
2019-01-08T06:34:23.578Z,38.00
2019-01-08T06:36:52.742Z,40.60
2019-01-08T06:39:21.919Z,36.63
2019-01-08T06:41:51.347Z,32.13
2019-01-08T06:44:20.703Z,44.33
2019-01-08T06:46:49.889Z,32.48
2019-01-08T06:49:19.103Z,40.15
2019-01-08T06:51:48.279Z,39.18
2019-01-08T06:54:17.457Z,32.85
2019-01-08T06:56:46.604Z,39.48
2019-01-08T06:59:16.739Z,29.80
2019-01-08T07:01:45.973Z,26.17
2019-01-08T07:04:15.414Z,25.62
2019-01-08T07:06:44.585Z,32.88
2019-01-08T07:09:13.787Z,39.20
2019-01-08T07:11:42.932Z,32.93
2019-01-08T07:14:12.100Z,39.45
2019-01-08T07:16:41.280Z,34.38
2019-01-08T07:19:10.451Z,31.80
2019-01-08T07:21:39.691Z,32.58
2019-01-08T07:24:08.941Z,38.35
2019-01-08T07:26:38.083Z,38.45
2019-01-08T07:29:07.258Z,29.50
2019-01-08T07:31:36.506Z,36.55
2019-01-08T07:34:05.724Z,38.98
2019-01-08T07:36:34.910Z,35.73
2019-01-08T07:39:05.186Z,29.40
2019-01-08T07:41:34.355Z,36.45
2019-01-08T07:44:03.823Z,31.15
2019-01-08T07:46:33.170Z,33.67
2019-01-08T07:49:02.417Z,36.90
2019-01-08T07:51:31.633Z,36.35
2019-01-08T07:54:00.883Z,30.32
2019-01-08T07:56:30.044Z,32.73
2019-01-08T07:58:59.602Z,29.42
2019-01-08T08:01:28.788Z,31.90
2019-01-08T08:03:58.914Z,32.13
2019-01-08T08:06:28.146Z,38.70
2019-01-08T08:08:57.506Z,33.42
2019-01-08T08:11:26.732Z,29.12
2019-01-08T08:13:55.895Z,34.13
2019-01-08T08:16:25.066Z,28.20
2019-01-08T08:18:54.215Z,27.73
2019-01-08T08:21:23.819Z,25.62
2019-01-08T08:23:53.001Z,30.37
2019-01-08T08:26:22.163Z,28.20
2019-01-08T08:28:51.326Z,26.30
2019-01-08T08:31:20.755Z,29.92
2019-01-08T08:33:50.239Z,33.08
2019-01-08T08:36:19.399Z,33.78
2019-01-08T08:38:48.606Z,30.02
2019-01-08T08:41:17.851Z,24.02
2019-01-08T08:43:47.019Z,30.88
2019-01-08T08:46:16.208Z,21.05
2019-01-08T08:48:45.362Z,23.60
2019-01-08T08:51:14.868Z,23.90
2019-01-08T08:53:52.051Z,30.40
2019-01-08T08:56:15.023Z,23.40
2019-01-08T08:58:44.207Z,26.48
2019-01-08T09:01:13.463Z,25.52
2019-01-08T09:03:42.610Z,25.77
2019-01-08T09:06:11.755Z,34.03
2019-01-08T09:08:40.930Z,25.23
2019-01-08T09:11:10.072Z,23.32
2019-01-08T09:13:39.219Z,30.77
2019-01-08T09:16:08.471Z,27.02
2019-01-08T09:18:37.647Z,28.80
2019-01-08T09:21:07.079Z,34.73
2019-01-08T09:23:36.246Z,26.75
2019-01-08T09:26:06.384Z,25.72
2019-01-08T09:28:36.001Z,29.07
2019-01-08T09:31:05.174Z,26.82
2019-01-08T09:33:35.394Z,29.72
2019-01-08T09:36:04.602Z,26.62
2019-01-08T09:38:33.915Z,21.97
2019-01-08T09:41:03.278Z,22.62
2019-01-08T09:43:32.475Z,32.00
2019-01-08T09:46:02.213Z,28.57
2019-01-08T09:48:31.358Z,34.27
2019-01-08T09:51:00.576Z,29.02
2019-01-08T09:53:29.739Z,28.50
2019-01-08T09:55:59.454Z,23.65
2019-01-08T09:58:28.600Z,31.17
2019-01-08T10:00:58.619Z,33.48
2019-01-08T10:03:27.777Z,26.35
2019-01-08T10:05:56.939Z,29.90
2019-01-08T10:08:26.119Z,22.35
2019-01-08T10:10:55.734Z,18.67
2019-01-08T10:13:24.903Z,29.05
2019-01-08T10:15:54.079Z,32.83
2019-01-08T10:18:23.293Z,24.95
2019-01-08T10:20:52.530Z,26.30
2019-01-08T10:23:21.711Z,27.50
2019-01-08T10:25:50.931Z,27.90
2019-01-08T10:28:20.094Z,23.90
2019-01-08T10:30:49.278Z,33.88
2019-01-08T10:33:18.476Z,23.73
2019-01-08T10:35:48.292Z,21.02
2019-01-08T10:38:17.500Z,22.45
2019-01-08T10:40:46.697Z,21.07
2019-01-08T10:43:15.857Z,20.65
2019-01-08T10:45:45.189Z,22.67
2019-01-08T10:48:14.533Z,19.57
2019-01-08T10:50:43.743Z,19.55
2019-01-08T10:53:12.987Z,16.67
2019-01-08T10:55:42.203Z,15.95
2019-01-08T10:58:11.377Z,15.98
2019-01-08T11:00:40.559Z,18.32
2019-01-08T11:03:09.803Z,16.23
2019-01-08T11:05:39.050Z,16.10
2019-01-08T11:08:08.723Z,21.23
2019-01-08T11:10:37.882Z,14.40
2019-01-08T11:13:07.127Z,23.25
2019-01-08T11:15:36.313Z,15.85
2019-01-08T11:18:05.513Z,15.13
2019-01-08T11:20:34.768Z,15.20
2019-01-08T11:23:04.010Z,21.17
2019-01-08T11:25:33.163Z,14.80
2019-01-08T11:28:02.443Z,16.15
2019-01-08T11:30:31.671Z,15.72
2019-01-08T11:33:00.967Z,17.87
2019-01-08T11:35:30.147Z,14.40
2019-01-08T11:37:59.619Z,13.20
2019-01-08T11:40:29.030Z,14.98
2019-01-08T11:42:59.247Z,11.40
2019-01-08T11:45:28.903Z,15.90
2019-01-08T11:48:03.762Z,12.80
2019-01-08T11:50:28.939Z,17.60
2019-01-08T11:52:58.118Z,13.43
2019-01-08T11:55:27.269Z,18.42
2019-01-08T11:57:56.830Z,13.20
2019-01-08T12:00:26.140Z,17.57
2019-01-08T12:02:55.365Z,19.00
2019-01-08T12:05:24.798Z,11.00
2019-01-08T12:07:53.980Z,13.55
2019-01-08T12:10:23.412Z,18.70
2019-01-08T12:12:52.653Z,16.62
2019-01-08T12:15:21.884Z,13.70
2019-01-08T12:17:52.157Z,14.75
2019-01-08T12:20:21.304Z,12.43
2019-01-08T12:22:50.875Z,14.85
2019-01-08T12:25:20.029Z,15.40
2019-01-08T12:27:49.250Z,16.55
2019-01-08T12:30:18.937Z,11.05
2019-01-08T12:32:48.091Z,14.87
2019-01-08T12:35:17.254Z,11.93
2019-01-08T12:37:46.508Z,19.15
2019-01-08T12:40:15.659Z,11.65
2019-01-08T12:42:45.358Z,10.38
2019-01-08T12:45:14.620Z,11.38
2019-01-08T12:47:43.863Z,13.72
2019-01-08T12:50:13.015Z,10.43
2019-01-08T12:52:42.200Z,8.00
2019-01-08T12:55:13.060Z,9.20
2019-01-08T12:57:42.409Z,12.70
2019-01-08T13:00:11.747Z,14.25
2019-01-08T13:02:42.059Z,11.33
2019-01-08T13:05:11.912Z,9.63
2019-01-08T13:07:41.054Z,10.10
2019-01-08T13:10:10.245Z,15.15
2019-01-08T13:12:40.128Z,14.85
2019-01-08T13:15:09.961Z,16.27
2019-01-08T13:17:39.127Z,14.10
2019-01-08T13:20:08.389Z,14.13
2019-01-08T13:22:37.616Z,14.60
2019-01-08T13:25:07.606Z,17.50
2019-01-08T13:27:36.785Z,15.55
2019-01-08T13:30:07.152Z,16.77
2019-01-08T13:32:36.658Z,18.67
2019-01-08T13:35:06.400Z,12.13
2019-01-08T13:37:35.548Z,12.40
2019-01-08T13:40:05.814Z,13.75
2019-01-08T13:42:35.270Z,18.20
2019-01-08T13:45:07.225Z,15.05
2019-01-08T13:47:36.402Z,14.95
2019-01-08T13:50:07.254Z,13.05
2019-01-08T13:52:37.175Z,17.73
2019-01-08T13:55:06.386Z,11.85
2019-01-08T13:57:35.532Z,19.35
2019-01-08T14:00:07.838Z,17.87
2019-01-08T14:02:38.631Z,16.70
2019-01-08T14:05:07.802Z,19.40
2019-01-08T14:07:37.357Z,22.62
2019-01-08T14:10:07.530Z,18.65
2019-01-08T14:12:36.982Z,19.95
2019-01-08T14:15:06.760Z,16.20
2019-01-08T14:17:36.852Z,15.80
2019-01-08T14:20:07.666Z,20.45
2019-01-08T14:22:37.473Z,21.37
2019-01-08T14:25:07.697Z,22.77
2019-01-08T14:27:37.047Z,15.90
2019-01-08T14:30:09.123Z,17.10
2019-01-08T14:32:40.766Z,18.27
2019-01-08T14:35:10.306Z,19.12
2019-01-08T14:37:39.653Z,16.85
2019-01-08T14:40:08.822Z,24.30
2019-01-08T14:42:37.998Z,18.85
2019-01-08T14:45:07.219Z,18.17
2019-01-08T14:47:36.443Z,17.50
2019-01-08T14:50:07.251Z,22.45
2019-01-08T14:52:36.416Z,17.42
2019-01-08T14:55:05.606Z,19.45
2019-01-08T14:57:34.758Z,19.48
2019-01-08T15:00:04.185Z,16.65
2019-01-08T15:02:35.063Z,18.82
2019-01-08T15:05:04.687Z,15.25
2019-01-08T15:07:34.231Z,15.80
2019-01-08T15:10:03.741Z,20.90
2019-01-08T15:12:33.044Z,22.48
2019-01-08T15:15:02.697Z,20.95
2019-01-08T15:17:32.865Z,20.00
2019-01-08T15:20:02.094Z,16.97
2019-01-08T15:22:31.695Z,14.63
2019-01-08T15:25:00.871Z,24.25
2019-01-08T15:27:30.107Z,17.82
2019-01-08T15:29:59.351Z,21.30
2019-01-08T15:32:28.706Z,21.85
2019-01-08T15:34:57.883Z,19.30
2019-01-08T15:37:27.051Z,19.42
2019-01-08T15:39:56.220Z,25.43
2019-01-08T15:42:25.366Z,20.00
2019-01-08T15:44:54.538Z,22.10
2019-01-08T15:47:23.941Z,26.42
2019-01-08T15:49:53.094Z,21.07
2019-01-08T15:52:22.383Z,18.82
2019-01-08T15:54:51.910Z,16.05
2019-01-08T15:57:21.063Z,20.12
2019-01-08T15:59:50.283Z,18.92
2019-01-08T16:02:19.518Z,21.57
2019-01-08T16:04:48.683Z,23.80
2019-01-08T16:07:17.826Z,19.80
2019-01-08T16:09:48.829Z,16.12
2019-01-08T16:12:17.841Z,18.67
2019-01-08T16:14:47.003Z,17.35
2019-01-08T16:17:17.122Z,21.37
2019-01-08T16:19:46.435Z,17.45
2019-01-08T16:22:15.594Z,20.43
2019-01-08T16:24:44.835Z,20.77
2019-01-08T16:27:13.982Z,19.90
2019-01-08T16:29:43.152Z,19.35
2019-01-08T16:32:12.334Z,23.02
2019-01-08T16:34:41.480Z,21.80
2019-01-08T16:37:10.732Z,21.48
2019-01-08T16:39:40.660Z,21.05
2019-01-08T16:42:10.422Z,23.25
2019-01-08T16:44:39.614Z,22.37
2019-01-08T16:47:08.804Z,22.22
2019-01-08T16:49:38.034Z,14.53
2019-01-08T16:52:07.716Z,23.70
2019-01-08T16:54:36.985Z,19.23
2019-01-08T16:57:06.132Z,20.12
2019-01-08T16:59:35.297Z,24.23
2019-01-08T17:02:04.951Z,19.87
2019-01-08T17:04:34.317Z,19.27
2019-01-08T17:07:03.599Z,16.97
2019-01-08T17:09:32.839Z,19.48
2019-01-08T17:12:01.989Z,24.27
2019-01-08T17:14:31.343Z,19.77
2019-01-08T17:17:00.590Z,20.95
2019-01-08T17:19:29.762Z,21.35
2019-01-08T17:21:58.995Z,28.45
2019-01-08T17:24:28.185Z,19.65
2019-01-08T17:26:57.334Z,23.65
2019-01-08T17:29:26.691Z,19.37
2019-01-08T17:31:55.939Z,25.60
2019-01-08T17:34:25.427Z,18.98
2019-01-08T17:36:54.615Z,22.85
2019-01-08T17:39:25.007Z,16.77
2019-01-08T17:41:54.760Z,24.40
2019-01-08T17:44:24.004Z,24.12
2019-01-08T17:46:53.175Z,13.58
2019-01-08T17:49:22.324Z,18.48
2019-01-08T17:51:51.512Z,21.80
2019-01-08T17:54:20.848Z,29.05
2019-01-08T17:56:50.481Z,20.70
2019-01-08T17:59:19.768Z,25.30
2019-01-08T18:01:51.650Z,28.73
2019-01-08T18:04:20.829Z,25.35
2019-01-08T18:06:50.355Z,27.70
2019-01-08T18:09:19.591Z,15.53
2019-01-08T18:11:48.737Z,27.75
2019-01-08T18:14:18.103Z,21.42
2019-01-08T18:16:47.345Z,15.35
2019-01-08T18:19:16.575Z,22.48
2019-01-08T18:21:45.779Z,23.62
2019-01-08T18:24:14.996Z,18.52
2019-01-08T18:26:44.146Z,20.15
2019-01-08T18:29:13.390Z,22.75
2019-01-08T18:31:42.650Z,20.27
2019-01-08T18:34:11.879Z,26.40
2019-01-08T18:36:41.681Z,24.00
2019-01-08T18:39:12.015Z,16.27
2019-01-08T18:41:41.490Z,18.62
2019-01-08T18:44:10.662Z,20.80
2019-01-08T18:46:39.834Z,20.75
2019-01-08T18:49:08.996Z,16.93
2019-01-08T18:51:39.129Z,19.30
2019-01-08T18:54:08.498Z,27.98
2019-01-08T18:56:39.652Z,17.45
2019-01-08T18:59:08.899Z,22.55
2019-01-08T19:01:38.452Z,14.83
2019-01-08T19:04:08.003Z,16.17
2019-01-08T19:06:37.733Z,17.05
2019-01-08T19:09:25.287Z,14.90
2019-01-08T19:11:55.131Z,21.95
2019-01-08T19:14:27.928Z,20.88
2019-01-08T19:16:57.558Z,20.52
2019-01-08T19:19:27.101Z,15.95
2019-01-08T19:21:56.894Z,21.05
2019-01-08T19:24:27.186Z,19.40
2019-01-08T19:27:01.271Z,21.33
2019-01-08T19:29:30.426Z,22.80
2019-01-08T19:32:00.060Z,25.08
2019-01-08T19:34:29.658Z,19.77
2019-01-08T19:36:58.963Z,16.95
2019-01-08T19:39:28.201Z,21.30
2019-01-08T19:41:57.530Z,25.68
2019-01-08T19:44:26.771Z,20.30
2019-01-08T19:46:56.212Z,20.88
2019-01-08T19:49:25.487Z,22.07
2019-01-08T19:51:55.009Z,24.95
2019-01-08T19:54:25.301Z,14.95
2019-01-08T19:56:54.829Z,25.02
2019-01-08T19:59:24.072Z,29.27
2019-01-08T20:01:53.239Z,15.00
2019-01-08T20:04:22.415Z,16.48
2019-01-08T20:06:51.645Z,22.67
2019-01-08T20:09:25.504Z,22.02
2019-01-08T20:11:51.692Z,19.77
2019-01-08T20:14:21.909Z,17.42
2019-01-08T20:16:51.245Z,23.65
2019-01-08T20:19:20.488Z,16.20
2019-01-08T20:21:49.631Z,15.68
2019-01-08T20:24:18.810Z,17.57
2019-01-08T20:26:48.079Z,18.87
2019-01-08T20:29:17.226Z,18.80
2019-01-08T20:31:47.221Z,12.13
2019-01-08T20:34:16.387Z,21.77
2019-01-08T20:36:45.774Z,20.05
2019-01-08T20:39:15.800Z,18.85
2019-01-08T20:41:45.053Z,19.82
2019-01-08T20:44:14.202Z,21.40
2019-01-08T20:46:43.415Z,17.48
2019-01-08T20:49:12.652Z,14.20
2019-01-08T20:51:41.835Z,18.10
2019-01-08T20:54:11.362Z,14.68
2019-01-08T20:56:40.614Z,14.43
2019-01-08T20:59:10.202Z,19.27
2019-01-08T21:01:39.371Z,22.32
2019-01-08T21:04:08.552Z,19.23
2019-01-08T21:06:37.767Z,16.55
2019-01-08T21:09:06.935Z,13.90
2019-01-08T21:11:36.175Z,19.12
2019-01-08T21:14:06.619Z,20.82
2019-01-08T21:16:36.235Z,18.32
2019-01-08T21:19:05.427Z,15.55
2019-01-08T21:21:34.707Z,16.52
2019-01-08T21:24:03.955Z,16.77
2019-01-08T21:26:33.208Z,22.07
2019-01-08T21:29:02.356Z,14.15
2019-01-08T21:31:31.539Z,16.73
2019-01-08T21:34:00.798Z,21.80
2019-01-08T21:36:30.252Z,19.27
2019-01-08T21:38:59.877Z,14.38
2019-01-08T21:41:29.418Z,17.92
2019-01-08T21:43:59.828Z,16.50
2019-01-08T21:46:29.236Z,14.47
2019-01-08T21:48:58.477Z,12.20
2019-01-08T21:51:29.354Z,18.12
2019-01-08T21:53:58.802Z,13.15
2019-01-08T21:56:27.972Z,16.77
2019-01-08T21:58:57.126Z,15.08
2019-01-08T22:01:26.286Z,11.12
2019-01-08T22:03:55.461Z,17.48
2019-01-08T22:06:24.608Z,23.67
2019-01-08T22:08:54.049Z,24.70
2019-01-08T22:11:23.226Z,15.25
2019-01-08T22:13:53.038Z,10.75
2019-01-08T22:16:23.183Z,13.80
2019-01-08T22:18:52.428Z,12.07
2019-01-08T22:21:21.574Z,13.20
2019-01-08T22:23:50.738Z,19.27
2019-01-08T22:26:20.874Z,21.15
2019-01-08T22:28:50.022Z,17.17
2019-01-08T22:31:19.190Z,11.85
2019-01-08T22:33:48.379Z,15.18
2019-01-08T22:36:17.592Z,12.88
2019-01-08T22:38:46.879Z,10.63
2019-01-08T22:41:16.055Z,11.30
2019-01-08T22:43:45.201Z,14.98
2019-01-08T22:46:15.028Z,12.65
2019-01-08T22:48:44.211Z,16.37
2019-01-08T22:51:14.042Z,18.55
2019-01-08T22:53:43.442Z,9.63
2019-01-08T22:56:12.618Z,12.73
2019-01-08T22:58:42.334Z,20.90
2019-01-08T23:01:13.213Z,10.50
2019-01-08T23:03:42.387Z,8.18
2019-01-08T23:06:12.091Z,8.78
2019-01-08T23:08:41.289Z,15.45
2019-01-08T23:11:12.193Z,16.27
2019-01-08T23:13:41.416Z,11.22
2019-01-08T23:16:12.988Z,11.73
2019-01-08T23:18:42.159Z,12.55
2019-01-08T23:21:11.862Z,11.65
2019-01-08T23:23:41.041Z,14.43
2019-01-08T23:26:10.179Z,8.83
2019-01-08T23:28:39.412Z,11.43
2019-01-08T23:31:08.983Z,12.95
2019-01-08T23:33:38.212Z,12.45
2019-01-08T23:36:07.379Z,11.75
2019-01-08T23:38:36.549Z,11.57
2019-01-08T23:41:05.704Z,16.30
2019-01-08T23:43:35.004Z,10.70
2019-01-08T23:46:04.175Z,14.53
2019-01-08T23:48:33.358Z,21.52
2019-01-08T23:51:02.592Z,12.78
2019-01-08T23:53:32.227Z,7.25
2019-01-08T23:56:02.033Z,21.68
2019-01-08T23:58:31.252Z,11.53
